Time;durP1;ratioP1;P1;durP2;ratioP2;P2;SDS_P1;SDS_P2;PMS_P1;PMS_P2;Temp;Humidity;BMP_temperature;BMP_pressure;BME280_temperature;BME280_humidity;BME280_pressure;Samples;Min_cycle;Max_cycle;Signal;HPM_P1;HPM_P2
2021/01/04 00:01:00;;;;;;;7.20;6.00;;;;;;;;;;5094967;28;20180;-61
2021/01/04 00:03:37;;;;;;;6.50;5.60;;;;;;;;;;5095245;28;20220;-62
2021/01/04 00:06:08;;;;;;;7.20;6.13;;;;;;;;;;5094166;28;20219;-61
2021/01/04 00:08:55;;;;;;;6.07;5.40;;;;;;;;;;5094708;28;20204;-61
2021/01/04 00:11:30;;;;;;;6.50;5.90;;;;;;;;;;5093611;28;20195;-62
2021/01/04 00:14:03;;;;;;;8.48;5.80;;;;;;;;;;5094134;28;20610;-61
2021/01/04 00:16:37;;;;;;;8.70;6.18;;;;;;;;;;5094096;28;20192;-61
2021/01/04 00:19:07;;;;;;;6.60;5.43;;;;;;;;;;5093969;28;20180;-61
2021/01/04 00:21:37;;;;;;;5.95;5.35;;;;;;;;;;5093763;28;20184;-61
2021/01/04 00:24:05;;;;;;;6.57;5.18;;;;;;;;;;5097371;28;20203;-61
2021/01/04 00:26:38;;;;;;;5.88;5.10;;;;;;;;;;5097709;28;20200;-60
2021/01/04 00:29:04;;;;;;;6.57;5.35;;;;;;;;;;5097612;28;20207;-62
2021/01/04 00:31:35;;;;;;;7.05;6.35;;;;;;;;;;5097798;28;20298;-61
2021/01/04 00:34:06;;;;;;;6.07;5.15;;;;;;;;;;5097567;28;20651;-62
2021/01/04 00:36:34;;;;;;;6.00;5.38;;;;;;;;;;5097514;28;20187;-61
2021/01/04 00:39:13;;;;;;;5.80;5.30;;;;;;;;;;5097685;28;20199;-61
2021/01/04 00:41:50;;;;;;;6.10;5.15;;;;;;;;;;5097944;28;20207;-59
2021/01/04 00:44:19;;;;;;;5.93;5.20;;;;;;;;;;5097452;28;20223;-62
2021/01/04 00:46:47;;;;;;;6.63;5.80;;;;;;;;;;5097546;28;20204;-62
2021/01/04 00:49:20;;;;;;;6.47;5.88;;;;;;;;;;5097339;28;20246;-62
2021/01/04 00:51:50;;;;;;;6.85;5.63;;;;;;;;;;5100253;28;20231;-60
2021/01/04 00:54:28;;;;;;;6.90;5.30;;;;;;;;;;5102796;28;20254;-61
2021/01/04 00:57:03;;;;;;;5.95;5.28;;;;;;;;;;5103217;28;20200;-61
2021/01/04 00:59:31;;;;;;;5.97;5.10;;;;;;;;;;5098404;28;20192;-59
2021/01/04 01:02:13;;;;;;;7.75;6.35;;;;;;;;;;5097973;28;20224;-60
2021/01/04 01:04:42;;;;;;;6.25;5.45;;;;;;;;;;5094956;28;20204;-60
2021/01/04 01:07:11;;;;;;;6.30;5.70;;;;;;;;;;5096980;28;20224;-61
2021/01/04 01:09:39;;;;;;;8.15;5.90;;;;;;;;;;5096847;28;20207;-60
2021/01/04 01:12:22;;;;;;;7.47;6.00;;;;;;;;;;5096797;28;20220;-61
2021/01/04 01:14:56;;;;;;;6.93;6.22;;;;;;;;;;5096688;28;20192;-60
2021/01/04 01:17:39;;;;;;;7.35;5.65;;;;;;;;;;5096440;28;20656;-61
2021/01/04 01:20:06;;;;;;;5.10;4.60;;;;;;;;;;5096609;28;20223;-61
2021/01/04 01:22:34;;;;;;;7.25;5.60;;;;;;;;;;5096236;28;20224;-61
2021/01/04 01:25:03;;;;;;;5.95;5.45;;;;;;;;;;5096588;28;20200;-61
2021/01/04 01:27:47;;;;;;;6.63;5.88;;;;;;;;;;5096713;28;20228;-61
2021/01/04 01:30:32;;;;;;;7.53;5.90;;;;;;;;;;5097991;28;20215;-60
2021/01/04 01:33:07;;;;;;;6.07;4.70;;;;;;;;;;5056799;28;20269;-60
2021/01/04 01:35:49;;;;;;;5.93;5.32;;;;;;;;;;5095932;28;20188;-60
2021/01/04 01:38:25;;;;;;;5.43;4.95;;;;;;;;;;5096574;28;20183;-61
2021/01/04 01:41:08;;;;;;;5.53;5.03;;;;;;;;;;5096598;28;20563;-61
2021/01/04 01:43:52;;;;;;;4.90;4.45;;;;;;;;;;5096312;28;20224;-61
2021/01/04 01:46:22;;;;;;;6.60;5.20;;;;;;;;;;5097674;28;20185;-60
2021/01/04 01:48:56;;;;;;;5.80;5.20;;;;;;;;;;5096334;28;20281;-60
2021/01/04 01:51:32;;;;;;;6.32;4.97;;;;;;;;;;5095918;28;20207;-60
2021/01/04 01:54:03;;;;;;;6.40;5.65;;;;;;;;;;5096769;28;20195;-60
2021/01/04 01:56:36;;;;;;;6.03;5.15;;;;;;;;;;5098985;28;20200;-60
2021/01/04 01:59:09;;;;;;;7.93;5.57;;;;;;;;;;5097597;28;20200;-60
2021/01/04 02:01:41;;;;;;;5.47;4.93;;;;;;;;;;5095586;28;20648;-59
2021/01/04 02:04:12;;;;;;;5.50;4.95;;;;;;;;;;5096092;28;20234;-60
2021/01/04 02:06:49;;;;;;;6.68;5.68;;;;;;;;;;5095653;28;20208;-60
2021/01/04 02:09:17;;;;;;;7.50;5.72;;;;;;;;;;5095365;28;20207;-61
2021/01/04 02:11:49;;;;;;;9.40;6.38;;;;;;;;;;5095425;28;20707;-60
2021/01/04 02:14:20;;;;;;;6.53;5.20;;;;;;;;;;5095638;28;20227;-60
2021/01/04 02:16:55;;;;;;;7.20;6.00;;;;;;;;;;5096538;28;20189;-61
2021/01/04 02:19:30;;;;;;;6.75;5.60;;;;;;;;;;5095868;28;20192;-61
2021/01/04 02:22:08;;;;;;;8.48;6.55;;;;;;;;;;5095526;28;20219;-60
2021/01/04 02:24:35;;;;;;;7.80;6.90;;;;;;;;;;5096345;28;20636;-60
2021/01/04 02:27:08;;;;;;;8.82;6.32;;;;;;;;;;5096816;28;20227;-60
2021/01/04 02:29:35;;;;;;;7.63;6.15;;;;;;;;;;5116245;28;20188;-60
2021/01/04 02:32:04;;;;;;;9.23;6.63;;;;;;;;;;5118615;28;20217;-61
2021/01/04 02:34:32;;;;;;;9.43;6.63;;;;;;;;;;5117591;28;20200;-60
2021/01/04 02:36:59;;;;;;;9.40;7.18;;;;;;;;;;5115846;28;20211;-61
2021/01/04 02:39:29;;;;;;;6.57;5.88;;;;;;;;;;5105986;28;20196;-60
2021/01/04 02:42:02;;;;;;;10.10;6.60;;;;;;;;;;5096182;28;20216;-60
2021/01/04 02:44:29;;;;;;;6.95;6.25;;;;;;;;;;5095507;28;20184;-60
2021/01/04 02:47:12;;;;;;;8.75;6.18;;;;;;;;;;5094392;28;20204;-61
2021/01/04 02:49:45;;;;;;;9.32;6.68;;;;;;;;;;5094822;28;20200;-60
2021/01/04 02:52:14;;;;;;;10.20;7.30;;;;;;;;;;5094460;28;20722;-60
2021/01/04 02:54:46;;;;;;;9.20;7.15;;;;;;;;;;5094305;28;20211;-60
2021/01/04 02:57:18;;;;;;;10.60;7.60;;;;;;;;;;5095251;28;20226;-60
2021/01/04 02:59:52;;;;;;;8.35;6.53;;;;;;;;;;5094737;28;20286;-60
2021/01/04 03:02:30;;;;;;;9.63;6.90;;;;;;;;;;5095830;28;20568;-62
2021/01/04 03:04:58;;;;;;;9.18;7.43;;;;;;;;;;5094539;28;20204;-60
2021/01/04 03:07:26;;;;;;;9.93;7.90;;;;;;;;;;5094181;28;20258;-60
2021/01/04 03:09:54;;;;;;;9.98;7.30;;;;;;;;;;5094548;28;20545;-60
2021/01/04 03:12:23;;;;;;;9.65;7.13;;;;;;;;;;5094466;28;20224;-60
2021/01/04 03:15:08;;;;;;;9.85;7.45;;;;;;;;;;5094360;28;20203;-60
2021/01/04 03:17:43;;;;;;;8.20;6.88;;;;;;;;;;5095020;28;20180;-60
2021/01/04 03:20:12;;;;;;;9.52;7.07;;;;;;;;;;5097285;28;20184;-60
2021/01/04 03:22:39;;;;;;;11.60;7.95;;;;;;;;;;5097213;28;20281;-60
2021/01/04 03:25:14;;;;;;;9.75;7.82;;;;;;;;;;5097464;28;20196;-59
2021/01/04 03:27:41;;;;;;;11.65;8.80;;;;;;;;;;5094101;28;20195;-61
2021/01/04 03:30:09;;;;;;;10.77;6.88;;;;;;;;;;5094191;28;20211;-60
2021/01/04 03:32:35;;;;;;;11.43;7.53;;;;;;;;;;5093956;28;20232;-59
2021/01/04 03:35:02;;;;;;;9.07;8.10;;;;;;;;;;5094411;28;20211;-61
2021/01/04 03:37:29;;;;;;;10.70;8.00;;;;;;;;;;5110776;28;20200;-62
2021/01/04 03:39:56;;;;;;;14.40;8.98;;;;;;;;;;5116056;28;20201;-65
2021/01/04 03:42:22;;;;;;;11.10;7.93;;;;;;;;;;5100016;28;20591;-61
2021/01/04 03:44:50;;;;;;;9.82;7.50;;;;;;;;;;5098857;28;20196;-60
2021/01/04 03:47:17;;;;;;;10.45;7.68;;;;;;;;;;5095601;28;20273;-60
2021/01/04 03:49:44;;;;;;;9.82;8.30;;;;;;;;;;5095595;28;20216;-60
2021/01/04 03:52:10;;;;;;;10.27;8.05;;;;;;;;;;5094688;28;20220;-59
2021/01/04 03:54:37;;;;;;;12.02;9.13;;;;;;;;;;5094173;28;20219;-60
2021/01/04 03:57:04;;;;;;;13.40;9.75;;;;;;;;;;5093994;28;20201;-59
2021/01/04 03:59:31;;;;;;;11.70;8.45;;;;;;;;;;5094419;28;20572;-61
2021/01/04 04:01:58;;;;;;;11.57;7.95;;;;;;;;;;5093781;28;20220;-61
2021/01/04 04:07:32;;;;;;;11.35;7.85;;;;;;;;;;5113251;27;20540;-60
2021/01/04 04:09:59;;;;;;;14.60;8.88;;;;;;;;;;5113254;28;20200;-59
2021/01/04 04:12:26;;;;;;;10.27;8.20;;;;;;;;;;5115248;28;20226;-60
2021/01/04 04:14:53;;;;;;;12.32;9.13;;;;;;;;;;5112957;28;20195;-61
2021/01/04 04:17:20;;;;;;;12.80;8.00;;;;;;;;;;5112060;28;20200;-60
2021/01/04 04:19:46;;;;;;;14.18;9.18;;;;;;;;;;5112702;28;20208;-61
2021/01/04 04:22:13;;;;;;;11.45;9.18;;;;;;;;;;5111264;28;20224;-61
2021/01/04 04:24:41;;;;;;;11.82;8.45;;;;;;;;;;5111044;28;20196;-61
2021/01/04 04:27:08;;;;;;;16.48;8.80;;;;;;;;;;5111018;28;20585;-61
2021/01/04 04:29:35;;;;;;;13.15;8.90;;;;;;;;;;5110986;28;20211;-61
2021/01/04 04:32:01;;;;;;;10.80;8.75;;;;;;;;;;5110913;28;20269;-60
2021/01/04 04:34:28;;;;;;;11.98;9.02;;;;;;;;;;5111014;28;20204;-59
2021/01/04 04:36:55;;;;;;;12.55;9.45;;;;;;;;;;5110536;28;20207;-61
2021/01/04 04:39:22;;;;;;;11.23;9.02;;;;;;;;;;5111160;28;20208;-60
2021/01/04 04:41:51;;;;;;;10.20;8.27;;;;;;;;;;5110639;28;20273;-60
2021/01/04 04:44:23;;;;;;;12.27;9.30;;;;;;;;;;5110675;28;20204;-60
2021/01/04 04:46:53;;;;;;;9.50;8.10;;;;;;;;;;5110533;28;20273;-60
2021/01/04 04:49:28;;;;;;;11.40;9.32;;;;;;;;;;5110881;28;20644;-60
2021/01/04 04:52:13;;;;;;;8.93;7.75;;;;;;;;;;5111504;28;20273;-61
2021/01/04 04:54:50;;;;;;;11.07;8.90;;;;;;;;;;5110859;28;20199;-60
2021/01/04 04:57:37;;;;;;;12.93;8.40;;;;;;;;;;5110690;28;20180;-60
2021/01/04 05:00:11;;;;;;;12.32;8.60;;;;;;;;;;5110743;28;20180;-60
2021/01/04 05:02:43;;;;;;;11.27;8.63;;;;;;;;;;5111419;28;20239;-60
2021/01/04 05:05:12;;;;;;;13.65;8.60;;;;;;;;;;5110454;28;20275;-60
2021/01/04 05:07:46;;;;;;;11.50;8.48;;;;;;;;;;5110536;28;20188;-61
2021/01/04 05:10:13;;;;;;;10.43;8.77;;;;;;;;;;5110551;28;20257;-60
2021/01/04 05:12:42;;;;;;;11.45;7.30;;;;;;;;;;5109867;28;20224;-59
2021/01/04 05:15:18;;;;;;;11.93;8.07;;;;;;;;;;5109948;28;20215;-59
2021/01/04 05:18:04;;;;;;;10.27;7.60;;;;;;;;;;5103343;28;20192;-60
2021/01/04 05:20:36;;;;;;;10.85;7.72;;;;;;;;;;5096563;28;20204;-59
2021/01/04 05:23:12;;;;;;;11.10;7.90;;;;;;;;;;5096210;28;20224;-60
2021/01/04 05:25:54;;;;;;;11.05;7.15;;;;;;;;;;5096454;28;20208;-60
2021/01/04 05:28:41;;;;;;;9.80;7.50;;;;;;;;;;5083726;28;20249;-60
2021/01/04 05:31:17;;;;;;;9.48;7.78;;;;;;;;;;5093831;28;20208;-60
2021/01/04 05:33:55;;;;;;;8.23;6.72;;;;;;;;;;5097477;28;20220;-60
2021/01/04 05:36:32;;;;;;;9.15;6.97;;;;;;;;;;5098117;28;20200;-61
2021/01/04 05:39:03;;;;;;;8.77;6.88;;;;;;;;;;5096527;28;20193;-60
2021/01/04 05:41:44;;;;;;;8.73;7.82;;;;;;;;;;5096370;28;20202;-61
2021/01/04 05:44:20;;;;;;;10.50;7.65;;;;;;;;;;5095987;28;20185;-60
2021/01/04 05:46:50;;;;;;;8.30;7.03;;;;;;;;;;5095869;28;20207;-61
2021/01/04 05:49:19;;;;;;;9.27;7.18;;;;;;;;;;5096353;28;20197;-59
2021/01/04 05:51:48;;;;;;;10.25;6.55;;;;;;;;;;5095648;28;20583;-61
2021/01/04 05:54:19;;;;;;;8.02;6.63;;;;;;;;;;5095747;28;20742;-60
2021/01/04 05:56:46;;;;;;;9.73;7.38;;;;;;;;;;5096051;28;20652;-60
2021/01/04 05:59:13;;;;;;;9.15;6.95;;;;;;;;;;5095764;28;20211;-59
2021/01/04 06:01:41;;;;;;;10.10;7.05;;;;;;;;;;5096198;28;20297;-61
2021/01/04 06:04:09;;;;;;;6.60;5.90;;;;;;;;;;5096325;28;20230;-60
2021/01/04 06:06:40;;;;;;;8.07;6.50;;;;;;;;;;5095530;28;20695;-59
2021/01/04 06:09:08;;;;;;;9.50;7.10;;;;;;;;;;5095658;28;20188;-60
2021/01/04 06:11:35;;;;;;;7.10;6.40;;;;;;;;;;5095043;28;20208;-61
2021/01/04 06:14:03;;;;;;;8.98;7.40;;;;;;;;;;5095548;28;20200;-60
2021/01/04 06:16:30;;;;;;;8.75;6.45;;;;;;;;;;5095204;28;20201;-61
2021/01/04 06:19:00;;;;;;;9.30;6.55;;;;;;;;;;5095216;28;20222;-60
2021/01/04 06:21:36;;;;;;;8.65;7.07;;;;;;;;;;5095242;28;20553;-59
2021/01/04 06:24:04;;;;;;;7.95;6.78;;;;;;;;;;5095696;28;20188;-60
2021/01/04 06:26:31;;;;;;;9.00;7.05;;;;;;;;;;5095504;28;20225;-62
2021/01/04 06:28:59;;;;;;;9.52;6.63;;;;;;;;;;5094069;28;20197;-61
2021/01/04 06:31:34;;;;;;;8.02;6.55;;;;;;;;;;5095025;28;20200;-61
2021/01/04 06:34:03;;;;;;;7.57;6.40;;;;;;;;;;5094919;28;20235;-61
2021/01/04 06:36:31;;;;;;;7.30;6.60;;;;;;;;;;5095473;28;20192;-60
2021/01/04 06:39:07;;;;;;;8.18;6.75;;;;;;;;;;5095314;28;20203;-60
2021/01/04 06:41:34;;;;;;;7.80;6.78;;;;;;;;;;5095350;28;20245;-59
2021/01/04 06:44:08;;;;;;;10.63;7.35;;;;;;;;;;5095297;28;20205;-59
2021/01/04 06:46:42;;;;;;;9.88;7.10;;;;;;;;;;5095033;28;20235;-60
2021/01/04 06:49:11;;;;;;;7.80;5.90;;;;;;;;;;5095038;28;20207;-59
2021/01/04 06:51:47;;;;;;;7.75;6.65;;;;;;;;;;5094826;28;20649;-60
2021/01/04 06:54:28;;;;;;;9.18;6.68;;;;;;;;;;5095591;28;20233;-59
2021/01/04 06:57:23;;;;;;;6.82;5.75;;;;;;;;;;5096229;28;20188;-60
2021/01/04 07:00:07;;;;;;;7.50;6.22;;;;;;;;;;5094528;28;20188;-59
2021/01/04 07:02:49;;;;;;;7.40;6.60;;;;;;;;;;5094718;28;20217;-60
2021/01/04 07:05:30;;;;;;;8.95;6.65;;;;;;;;;;5094388;28;20189;-60
2021/01/04 07:08:06;;;;;;;8.52;5.97;;;;;;;;;;5092644;28;20571;-59
2021/01/04 07:10:48;;;;;;;9.15;6.07;;;;;;;;;;5094525;28;20200;-59
2021/01/04 07:13:26;;;;;;;6.75;5.50;;;;;;;;;;5094495;28;20232;-59
2021/01/04 07:16:02;;;;;;;6.82;6.13;;;;;;;;;;5094429;28;20655;-60
2021/01/04 07:18:40;;;;;;;9.48;6.80;;;;;;;;;;5094900;28;20235;-61
2021/01/04 07:21:19;;;;;;;5.20;4.70;;;;;;;;;;5094469;28;20184;-61
2021/01/04 07:23:54;;;;;;;6.15;5.00;;;;;;;;;;5096132;28;20712;-61
2021/01/04 07:26:26;;;;;;;7.13;5.07;;;;;;;;;;5096948;28;20226;-61
2021/01/04 07:29:10;;;;;;;7.22;6.40;;;;;;;;;;5094597;28;20931;-63
2021/01/04 07:31:39;;;;;;;6.28;5.30;;;;;;;;;;5094415;28;20188;-62
2021/01/04 07:34:07;;;;;;;5.60;4.85;;;;;;;;;;5093996;28;20212;-61
2021/01/04 07:36:37;;;;;;;5.60;5.10;;;;;;;;;;5094091;28;20664;-62
2021/01/04 07:39:08;;;;;;;7.80;5.70;;;;;;;;;;5094450;28;20594;-62
2021/01/04 07:41:41;;;;;;;5.97;4.35;;;;;;;;;;5093872;28;20192;-62
2021/01/04 07:44:25;;;;;;;5.93;4.93;;;;;;;;;;5094227;28;20270;-63
2021/01/04 07:47:09;;;;;;;7.85;5.38;;;;;;;;;;5093824;28;20238;-62
2021/01/04 07:49:57;;;;;;;5.32;4.60;;;;;;;;;;5093647;28;20709;-63
2021/01/04 07:52:35;;;;;;;5.72;4.60;;;;;;;;;;5094672;28;20637;-63
2021/01/04 07:55:17;;;;;;;4.80;4.22;;;;;;;;;;5093911;28;20195;-62
2021/01/04 07:57:58;;;;;;;5.20;4.53;;;;;;;;;;5093428;28;20181;-63
2021/01/04 08:00:43;;;;;;;6.03;4.72;;;;;;;;;;5093452;28;20234;-61
2021/01/04 08:03:25;;;;;;;5.45;4.53;;;;;;;;;;5093301;28;20224;-63
2021/01/04 08:06:03;;;;;;;5.47;4.97;;;;;;;;;;5091432;28;20220;-63
2021/01/04 08:08:47;;;;;;;5.10;4.40;;;;;;;;;;5093878;28;20185;-63
2021/01/04 08:11:31;;;;;;;5.88;4.10;;;;;;;;;;5094433;28;20611;-61
2021/01/04 08:14:17;;;;;;;7.47;4.47;;;;;;;;;;5094718;28;20651;-61
2021/01/04 08:16:46;;;;;;;5.13;4.63;;;;;;;;;;5095888;28;20185;-63
2021/01/04 08:19:14;;;;;;;5.43;4.53;;;;;;;;;;5094611;28;20207;-62
2021/01/04 08:21:48;;;;;;;4.40;4.00;;;;;;;;;;5094605;28;20208;-63
2021/01/04 08:24:19;;;;;;;5.18;4.18;;;;;;;;;;5094203;28;20188;-63
2021/01/04 08:26:59;;;;;;;5.05;4.65;;;;;;;;;;5094070;28;20258;-63
2021/01/04 08:29:33;;;;;;;4.38;3.95;;;;;;;;;;5093394;28;20188;-63
2021/01/04 08:32:04;;;;;;;6.30;4.38;;;;;;;;;;5092844;28;20219;-62
2021/01/04 08:34:37;;;;;;;5.38;4.55;;;;;;;;;;5093339;28;20185;-62
2021/01/04 08:37:05;;;;;;;4.90;4.50;;;;;;;;;;5094529;28;20526;-62
2021/01/04 08:39:35;;;;;;;7.18;4.70;;;;;;;;;;5094597;28;20201;-60
2021/01/04 08:42:08;;;;;;;5.75;4.57;;;;;;;;;;5095651;28;20578;-60
2021/01/04 08:44:36;;;;;;;5.55;3.85;;;;;;;;;;5098451;28;20192;-59
2021/01/04 08:47:07;;;;;;;4.20;3.78;;;;;;;;;;5099622;28;20224;-60
2021/01/04 08:49:40;;;;;;;4.05;3.65;;;;;;;;;;5097324;28;20185;-60
2021/01/04 08:52:15;;;;;;;5.93;5.00;;;;;;;;;;5095160;28;20227;-61
2021/01/04 08:54:41;;;;;;;5.80;4.65;;;;;;;;;;5098745;28;20199;-59
2021/01/04 08:57:13;;;;;;;4.05;3.65;;;;;;;;;;5098479;28;20683;-60
2021/01/04 08:59:51;;;;;;;5.90;4.53;;;;;;;;;;5098121;28;20663;-60
2021/01/04 09:02:25;;;;;;;3.97;3.58;;;;;;;;;;5098008;28;20215;-59
2021/01/04 09:04:59;;;;;;;4.63;3.88;;;;;;;;;;5102781;28;20262;-61
2021/01/04 09:07:28;;;;;;;5.13;4.30;;;;;;;;;;5100198;28;20241;-60
2021/01/04 09:09:57;;;;;;;4.53;4.13;;;;;;;;;;5099142;28;20227;-58
2021/01/04 09:12:27;;;;;;;4.35;3.90;;;;;;;;;;5098165;28;20228;-61
2021/01/04 09:14:55;;;;;;;4.13;3.83;;;;;;;;;;5098543;28;20203;-60
2021/01/04 09:17:35;;;;;;;4.50;3.90;;;;;;;;;;5098380;28;20205;-60
2021/01/04 09:20:05;;;;;;;5.88;4.20;;;;;;;;;;5098314;28;20283;-60
2021/01/04 09:22:33;;;;;;;4.28;3.88;;;;;;;;;;5100414;28;20224;-60
2021/01/04 09:24:59;;;;;;;4.30;3.90;;;;;;;;;;5099761;28;20200;-59
2021/01/04 09:27:30;;;;;;;4.30;3.90;;;;;;;;;;5103597;28;20220;-60
2021/01/04 09:29:58;;;;;;;4.28;3.88;;;;;;;;;;5100335;28;20237;-61
2021/01/04 09:32:30;;;;;;;4.45;4.05;;;;;;;;;;5097443;28;20692;-61
2021/01/04 09:34:57;;;;;;;4.03;3.72;;;;;;;;;;5097111;28;20254;-58
2021/01/04 09:37:25;;;;;;;4.57;4.18;;;;;;;;;;5097326;28;20192;-60
2021/01/04 09:39:54;;;;;;;4.60;4.15;;;;;;;;;;5098027;28;20208;-61
2021/01/04 09:42:25;;;;;;;5.25;4.25;;;;;;;;;;5105979;28;20221;-60
2021/01/04 09:44:52;;;;;;;4.07;3.67;;;;;;;;;;5108867;28;20211;-60
2021/01/04 09:47:23;;;;;;;5.18;3.97;;;;;;;;;;5098650;28;20216;-59
2021/01/04 09:49:52;;;;;;;4.47;4.07;;;;;;;;;;5097675;28;20536;-61
2021/01/04 09:52:21;;;;;;;4.35;3.95;;;;;;;;;;5096298;28;20626;-60
2021/01/04 09:54:49;;;;;;;4.75;4.32;;;;;;;;;;5096379;28;20567;-59
2021/01/04 09:57:19;;;;;;;4.40;4.00;;;;;;;;;;5096040;28;20694;-59
2021/01/04 09:59:47;;;;;;;5.40;4.32;;;;;;;;;;5096242;28;20188;-60
2021/01/04 10:02:20;;;;;;;6.55;3.95;;;;;;;;;;5100872;28;20216;-60
2021/01/04 10:04:47;;;;;;;4.38;3.97;;;;;;;;;;5100363;28;20574;-59
2021/01/04 10:07:16;;;;;;;4.15;3.75;;;;;;;;;;5100737;28;20219;-60
2021/01/04 10:09:45;;;;;;;5.00;4.50;;;;;;;;;;5100471;28;20205;-60
2021/01/04 10:12:16;;;;;;;5.72;4.65;;;;;;;;;;5101444;28;20225;-59
2021/01/04 10:14:44;;;;;;;5.30;4.68;;;;;;;;;;5103120;28;20642;-59
2021/01/04 10:17:12;;;;;;;5.05;4.57;;;;;;;;;;5100246;28;20254;-60
2021/01/04 10:19:40;;;;;;;5.03;4.53;;;;;;;;;;5098088;28;20428;-60
2021/01/04 10:22:09;;;;;;;5.20;4.70;;;;;;;;;;5098673;28;20228;-60
2021/01/04 10:24:38;;;;;;;4.78;4.25;;;;;;;;;;5097245;28;20266;-60
2021/01/04 10:27:09;;;;;;;5.20;4.70;;;;;;;;;;5097049;28;20224;-60
2021/01/04 10:29:41;;;;;;;5.03;4.63;;;;;;;;;;5098566;28;20269;-60
2021/01/04 10:32:13;;;;;;;5.35;4.72;;;;;;;;;;5100807;28;20285;-58
2021/01/04 10:34:44;;;;;;;5.38;4.88;;;;;;;;;;5097992;28;20222;-59
2021/01/04 10:37:26;;;;;;;5.30;4.47;;;;;;;;;;5098163;28;20185;-59
2021/01/04 10:39:58;;;;;;;5.35;4.55;;;;;;;;;;5097589;28;20196;-59
2021/01/04 10:42:25;;;;;;;5.30;4.80;;;;;;;;;;5097747;28;20543;-58
2021/01/04 10:44:52;;;;;;;5.32;4.80;;;;;;;;;;5096748;28;20211;-59
2021/01/04 10:47:23;;;;;;;5.20;4.40;;;;;;;;;;5097430;28;20679;-61
2021/01/04 10:49:50;;;;;;;4.93;4.43;;;;;;;;;;5098771;28;20181;-59
2021/01/04 10:52:20;;;;;;;6.47;5.20;;;;;;;;;;5097219;28;20273;-60
2021/01/04 10:54:46;;;;;;;6.97;4.90;;;;;;;;;;5095802;28;20203;-59
2021/01/04 10:57:19;;;;;;;6.22;5.43;;;;;;;;;;5095772;28;20200;-59
2021/01/04 10:59:48;;;;;;;5.38;4.88;;;;;;;;;;5095175;28;20227;-59
2021/01/04 11:02:15;;;;;;;5.50;4.28;;;;;;;;;;5095510;28;20227;-60
2021/01/04 11:04:50;;;;;;;5.65;5.07;;;;;;;;;;5096685;28;20206;-59
2021/01/04 11:07:22;;;;;;;6.40;5.78;;;;;;;;;;5095107;28;20230;-61
2021/01/04 11:09:49;;;;;;;6.45;5.15;;;;;;;;;;5095343;28;20189;-59
2021/01/04 11:12:18;;;;;;;5.72;4.97;;;;;;;;;;5095149;28;20220;-61
2021/01/04 11:14:59;;;;;;;4.72;4.28;;;;;;;;;;5094357;28;20673;-60
2021/01/04 11:17:27;;;;;;;5.65;4.80;;;;;;;;;;5094814;28;20208;-59
2021/01/04 11:19:55;;;;;;;6.43;5.80;;;;;;;;;;5094514;28;20241;-60
2021/01/04 11:22:23;;;;;;;7.35;5.00;;;;;;;;;;5094669;28;20220;-60
2021/01/04 11:24:51;;;;;;;5.97;5.28;;;;;;;;;;5095577;28;20575;-60
2021/01/04 11:27:17;;;;;;;5.88;5.25;;;;;;;;;;5095391;28;20227;-61
2021/01/04 11:29:45;;;;;;;5.97;5.38;;;;;;;;;;5096349;28;20252;-61
2021/01/04 11:32:12;;;;;;;4.97;4.25;;;;;;;;;;5094853;28;20696;-60
2021/01/04 11:34:42;;;;;;;5.32;4.80;;;;;;;;;;5095693;28;20253;-59
2021/01/04 11:37:10;;;;;;;8.02;6.00;;;;;;;;;;5096064;28;20288;-61
2021/01/04 11:39:36;;;;;;;6.72;4.63;;;;;;;;;;5095333;28;20671;-60
2021/01/04 11:42:04;;;;;;;7.32;5.10;;;;;;;;;;5095885;28;20229;-60
2021/01/04 11:44:30;;;;;;;5.25;4.60;;;;;;;;;;5095890;28;20223;-60
2021/01/04 11:46:57;;;;;;;5.22;4.68;;;;;;;;;;5096349;28;20572;-60
2021/01/04 11:49:24;;;;;;;4.72;4.20;;;;;;;;;;5097986;28;20588;-60
2021/01/04 11:51:51;;;;;;;4.82;4.35;;;;;;;;;;5103986;28;20238;-60
2021/01/04 11:54:19;;;;;;;4.95;4.45;;;;;;;;;;5098477;28;20234;-60
2021/01/04 11:56:46;;;;;;;4.63;4.15;;;;;;;;;;5098002;28;20200;-60
2021/01/04 11:59:13;;;;;;;3.83;3.42;;;;;;;;;;5098413;28;20584;-59
2021/01/04 12:01:40;;;;;;;6.20;3.88;;;;;;;;;;5097821;28;20201;-60
2021/01/04 12:04:07;;;;;;;4.07;3.67;;;;;;;;;;5096846;28;20257;-61
2021/01/04 12:06:34;;;;;;;4.20;3.80;;;;;;;;;;5094849;28;20224;-61
2021/01/04 12:09:01;;;;;;;3.95;3.60;;;;;;;;;;5095780;28;20207;-61
2021/01/04 12:11:32;;;;;;;4.70;4.20;;;;;;;;;;5095838;28;20253;-60
2021/01/04 12:13:59;;;;;;;4.30;3.90;;;;;;;;;;5095460;28;20188;-61
2021/01/04 12:16:28;;;;;;;5.72;4.25;;;;;;;;;;5095548;28;20609;-59
2021/01/04 12:18:54;;;;;;;4.25;3.85;;;;;;;;;;5095105;28;20232;-61
2021/01/04 12:21:22;;;;;;;8.32;4.93;;;;;;;;;;5095932;28;20215;-60
2021/01/04 12:23:48;;;;;;;3.55;3.25;;;;;;;;;;5095654;28;20246;-60
2021/01/04 12:26:15;;;;;;;5.38;4.28;;;;;;;;;;5096909;28;20228;-59
2021/01/04 12:28:43;;;;;;;5.65;4.18;;;;;;;;;;5099075;28;20200;-60
2021/01/04 12:31:10;;;;;;;3.55;3.25;;;;;;;;;;5099508;28;20665;-59
2021/01/04 12:33:37;;;;;;;3.95;3.55;;;;;;;;;;5099513;28;20303;-60
2021/01/04 12:36:04;;;;;;;4.07;3.25;;;;;;;;;;5098344;28;20672;-59
2021/01/04 12:38:31;;;;;;;4.55;4.00;;;;;;;;;;5098293;28;20200;-59
2021/01/04 12:40:58;;;;;;;4.60;3.97;;;;;;;;;;5098639;28;20574;-61
2021/01/04 12:43:24;;;;;;;4.60;3.60;;;;;;;;;;5097200;28;20228;-61
2021/01/04 12:45:52;;;;;;;4.55;3.63;;;;;;;;;;5098737;28;20287;-61
2021/01/04 12:48:19;;;;;;;4.35;3.40;;;;;;;;;;5097648;28;20746;-60
2021/01/04 12:50:46;;;;;;;5.45;3.75;;;;;;;;;;5098979;28;20204;-61
2021/01/04 12:53:12;;;;;;;4.18;3.55;;;;;;;;;;5100291;28;20224;-61
2021/01/04 12:55:39;;;;;;;3.25;2.95;;;;;;;;;;5102349;28;20203;-61
2021/01/04 12:58:06;;;;;;;4.13;3.72;;;;;;;;;;5102306;28;20207;-61
2021/01/04 13:00:35;;;;;;;4.25;3.85;;;;;;;;;;5102866;28;20683;-60
2021/01/04 13:03:02;;;;;;;4.90;3.45;;;;;;;;;;5108077;28;20696;-60
2021/01/04 13:05:29;;;;;;;4.40;3.55;;;;;;;;;;5106978;28;20222;-59
2021/01/04 13:07:58;;;;;;;5.75;4.65;;;;;;;;;;5102583;28;20227;-60
2021/01/04 13:10:25;;;;;;;4.07;3.55;;;;;;;;;;5102935;28;20205;-61
2021/01/04 13:12:51;;;;;;;4.45;3.30;;;;;;;;;;5101500;28;20224;-60
2021/01/04 13:15:18;;;;;;;3.78;3.28;;;;;;;;;;5100598;28;20204;-61
2021/01/04 13:17:45;;;;;;;3.40;3.10;;;;;;;;;;5098966;28;20687;-61
2021/01/04 13:20:14;;;;;;;3.42;3.13;;;;;;;;;;5097351;28;20200;-60
2021/01/04 13:22:42;;;;;;;3.75;3.45;;;;;;;;;;5097396;28;20216;-61
2021/01/04 13:25:09;;;;;;;4.55;3.70;;;;;;;;;;5097179;28;20243;-61
2021/01/04 13:27:36;;;;;;;3.78;3.40;;;;;;;;;;5097434;28;20224;-60
2021/01/04 13:30:04;;;;;;;6.97;3.67;;;;;;;;;;5096649;28;20204;-62
2021/01/04 13:32:31;;;;;;;4.43;3.97;;;;;;;;;;5096763;28;20731;-61
2021/01/04 13:34:57;;;;;;;4.75;4.28;;;;;;;;;;5096963;28;20205;-61
2021/01/04 13:37:25;;;;;;;4.95;4.35;;;;;;;;;;5097056;28;20230;-61
2021/01/04 13:39:52;;;;;;;4.32;3.92;;;;;;;;;;5100057;28;20201;-59
2021/01/04 13:42:19;;;;;;;5.03;3.95;;;;;;;;;;5100417;28;20220;-61
2021/01/04 13:44:46;;;;;;;5.57;4.28;;;;;;;;;;5098784;28;20208;-61
2021/01/04 13:47:15;;;;;;;4.55;4.15;;;;;;;;;;5098762;28;20216;-60
2021/01/04 13:49:42;;;;;;;4.72;4.30;;;;;;;;;;5097156;28;20287;-60
2021/01/04 13:52:09;;;;;;;4.00;3.58;;;;;;;;;;5110012;28;20220;-60
2021/01/04 13:54:36;;;;;;;3.90;3.45;;;;;;;;;;5104073;28;20208;-59
2021/01/04 13:57:04;;;;;;;4.40;4.00;;;;;;;;;;5097601;28;20196;-62
2021/01/04 13:59:30;;;;;;;3.80;3.50;;;;;;;;;;5097292;28;20203;-61
2021/01/04 14:01:58;;;;;;;4.07;3.67;;;;;;;;;;5095569;28;20772;-60
2021/01/04 14:04:25;;;;;;;5.30;4.80;;;;;;;;;;5096467;28;20240;-61
2021/01/04 14:06:52;;;;;;;6.70;4.53;;;;;;;;;;5095995;28;20220;-61
2021/01/04 14:09:18;;;;;;;4.35;3.95;;;;;;;;;;5095957;28;20203;-60
2021/01/04 14:11:49;;;;;;;4.45;3.60;;;;;;;;;;5099322;28;20228;-61
2021/01/04 14:14:16;;;;;;;4.50;3.95;;;;;;;;;;5100497;28;20189;-59
2021/01/04 14:16:43;;;;;;;4.88;4.32;;;;;;;;;;5099758;28;20200;-61
2021/01/04 14:19:10;;;;;;;5.63;4.68;;;;;;;;;;5097767;28;20212;-61
2021/01/04 14:21:37;;;;;;;4.90;4.40;;;;;;;;;;5097121;28;20212;-59
2021/01/04 14:24:04;;;;;;;5.28;4.32;;;;;;;;;;5098952;28;20223;-59
2021/01/04 14:26:32;;;;;;;10.63;4.82;;;;;;;;;;5099493;28;20269;-60
2021/01/04 14:29:00;;;;;;;5.95;4.47;;;;;;;;;;5099580;28;20197;-60
2021/01/04 14:31:36;;;;;;;4.70;4.15;;;;;;;;;;5101470;28;20276;-58
2021/01/04 14:34:03;;;;;;;4.13;3.83;;;;;;;;;;5099957;28;20561;-58
2021/01/04 14:36:30;;;;;;;5.10;4.60;;;;;;;;;;5097670;28;20286;-60
2021/01/04 14:38:56;;;;;;;4.90;4.25;;;;;;;;;;5097725;28;20200;-60
2021/01/04 14:41:23;;;;;;;4.50;4.10;;;;;;;;;;5098198;28;20200;-60
2021/01/04 14:43:50;;;;;;;6.15;4.60;;;;;;;;;;5098378;28;20200;-60
2021/01/04 14:46:20;;;;;;;5.38;4.88;;;;;;;;;;5097962;28;20265;-59
2021/01/04 14:48:47;;;;;;;4.80;4.35;;;;;;;;;;5097228;28;20185;-60
2021/01/04 14:51:16;;;;;;;4.93;4.13;;;;;;;;;;5095780;28;20203;-58
2021/01/04 14:53:43;;;;;;;5.35;4.80;;;;;;;;;;5096507;28;20224;-59
2021/01/04 14:56:10;;;;;;;5.78;4.15;;;;;;;;;;5099233;28;20664;-59
2021/01/04 14:58:37;;;;;;;7.10;4.70;;;;;;;;;;5095620;28;20295;-60
2021/01/04 15:01:04;;;;;;;6.35;5.75;;;;;;;;;;5095770;28;20287;-60
2021/01/04 15:03:32;;;;;;;4.97;4.47;;;;;;;;;;5094633;28;20308;-59
2021/01/04 15:05:58;;;;;;;5.55;4.95;;;;;;;;;;5094399;28;20208;-60